Time;durP1;ratioP1;P1;durP2;ratioP2;P2;SDS_P1;SDS_P2;PMS_P1;PMS_P2;Temp;Humidity;BMP_temperature;BMP_pressure;BME280_temperature;BME280_humidity;BME280_pressure;Samples;Min_cycle;Max_cycle;Signal;HPM_P1;HPM_P2
2022/03/21 00:00:55;;;;;;;17.83;13.27;;;;;;;5.74;51.29;96794.53;6072189;23;20626;-80
2022/03/21 00:03:23;;;;;;;20.93;12.97;;;;;;;5.72;51.28;96788.66;6119729;23;20580;-80
2022/03/21 00:05:48;;;;;;;18.20;13.10;;;;;;;5.73;50.86;96781.75;6096196;23;20192;-80
2022/03/21 00:08:17;;;;;;;23.50;14.20;;;;;;;5.82;50.98;96792.38;6072024;23;20195;-80
2022/03/21 00:10:42;;;;;;;16.80;12.63;;;;;;;5.85;50.65;96792.22;6071947;23;20165;-80
2022/03/21 00:13:08;;;;;;;18.70;12.93;;;;;;;5.76;51.10;96787.59;6069497;23;20167;-80
2022/03/21 00:15:34;;;;;;;21.47;13.93;;;;;;;5.75;51.24;96783.34;6095838;23;20172;-80
2022/03/21 00:18:01;;;;;;;19.07;13.03;;;;;;;5.66;51.79;96792.44;6096163;23;20149;-80
2022/03/21 00:20:29;;;;;;;17.77;12.93;;;;;;;5.68;52.13;96792.34;6096140;23;20465;-79
2022/03/21 00:22:54;;;;;;;20.23;12.83;;;;;;;5.67;51.86;96796.66;6095456;23;20573;-80
2022/03/21 00:25:19;;;;;;;16.10;13.43;;;;;;;5.70;51.93;96798.22;6096080;23;20180;-81
2022/03/21 00:27:45;;;;;;;19.47;13.10;;;;;;;5.64;52.52;96796.81;6096217;23;20509;-80
2022/03/21 00:30:10;;;;;;;20.33;13.60;;;;;;;5.77;51.60;96799.53;6095743;23;20153;-80
2022/03/21 00:32:37;;;;;;;20.83;13.53;;;;;;;5.70;51.74;96798.22;6071106;23;20160;-80
2022/03/21 00:35:06;;;;;;;20.80;14.07;;;;;;;5.71;52.08;96799.06;6095939;23;20208;-80
2022/03/21 00:37:31;;;;;;;17.40;12.53;;;;;;;5.66;52.22;96799.34;6095807;23;20603;-80
2022/03/21 00:39:58;;;;;;;15.50;12.27;;;;;;;5.56;52.25;96793.84;6096243;23;20219;-80
2022/03/21 00:42:23;;;;;;;25.93;13.20;;;;;;;5.59;52.93;96806.56;6095054;23;20236;-80
2022/03/21 00:44:48;;;;;;;18.47;13.47;;;;;;;5.52;53.44;96807.00;6071495;23;20243;-81
2022/03/21 00:47:16;;;;;;;18.03;13.40;;;;;;;5.43;53.85;96815.25;6095734;23;20179;-80
2022/03/21 00:49:42;;;;;;;18.03;12.57;;;;;;;5.21;54.42;96820.72;6072029;23;20626;-80
2022/03/21 00:52:08;;;;;;;20.63;13.23;;;;;;;5.10;55.31;96819.56;6070480;23;20179;-81
2022/03/21 00:54:33;;;;;;;19.60;13.47;;;;;;;4.99;55.30;96824.47;6095644;23;20236;-80
2022/03/21 00:56:59;;;;;;;18.67;13.97;;;;;;;5.00;55.30;96830.47;6095368;23;20141;-81
2022/03/21 00:59:24;;;;;;;16.87;13.30;;;;;;;4.94;55.43;96818.72;6071589;23;20604;-81
2022/03/21 01:01:49;;;;;;;18.50;12.70;;;;;;;4.91;55.43;96820.66;6095117;23;20172;-80
2022/03/21 01:04:14;;;;;;;19.63;14.10;;;;;;;4.91;55.01;96811.19;6095502;23;20184;-80
2022/03/21 01:06:40;;;;;;;20.30;13.37;;;;;;;4.99;54.82;96815.94;6071553;23;20168;-80
2022/03/21 01:09:05;;;;;;;20.37;13.23;;;;;;;4.92;55.45;96810.25;6119750;23;20180;-80
2022/03/21 01:11:30;;;;;;;17.80;13.00;;;;;;;4.81;55.93;96818.56;6094694;23;20160;-79
2022/03/21 01:13:56;;;;;;;17.83;13.67;;;;;;;4.78;56.39;96821.31;6096874;23;20506;-80
2022/03/21 01:16:21;;;;;;;18.20;13.27;;;;;;;4.66;56.52;96815.97;6074753;23;20610;-81
2022/03/21 01:18:46;;;;;;;17.93;12.93;;;;;;;4.61;56.71;96817.97;6070545;23;20167;-80
2022/03/21 01:21:12;;;;;;;17.17;12.23;;;;;;;4.52;56.55;96829.56;6094090;23;20184;-80
2022/03/21 01:23:37;;;;;;;18.13;13.47;;;;;;;4.44;56.77;96824.81;6071047;23;20192;-80
2022/03/21 01:26:03;;;;;;;19.40;13.77;;;;;;;4.41;56.67;96830.09;6070838;23;20207;-80
2022/03/21 01:28:28;;;;;;;18.77;13.13;;;;;;;4.39;57.45;96826.78;6070904;23;20197;-79
2022/03/21 01:30:53;;;;;;;18.87;14.27;;;;;;;4.25;58.05;96829.22;6070710;23;20165;-79
2022/03/21 01:33:19;;;;;;;17.33;12.97;;;;;;;4.09;59.01;96830.91;6069855;23;20180;-79
2022/03/21 01:35:44;;;;;;;20.27;13.43;;;;;;;3.94;59.90;96829.94;6094582;23;20180;-81
2022/03/21 01:38:09;;;;;;;20.53;13.77;;;;;;;3.89;61.03;96831.91;6119385;23;20540;-80
2022/03/21 01:40:35;;;;;;;17.23;12.83;;;;;;;3.77;61.61;96827.34;6070762;23;20164;-80
2022/03/21 01:43:00;;;;;;;19.37;13.17;;;;;;;3.64;62.79;96827.13;6095765;23;20167;-80
2022/03/21 01:45:27;;;;;;;18.60;12.57;;;;;;;3.56;62.50;96824.91;6071074;23;20265;-80
2022/03/21 01:47:52;;;;;;;15.03;12.00;;;;;;;3.56;62.54;96829.22;6098905;23;20187;-81
2022/03/21 01:50:18;;;;;;;19.87;13.10;;;;;;;3.56;62.88;96826.66;6095738;23;20167;-80
2022/03/21 01:52:44;;;;;;;18.13;12.87;;;;;;;3.43;63.52;96836.66;6070744;23;20163;-81
2022/03/21 01:57:54;;;;;;;18.97;13.73;;;;;;;3.26;64.05;96836.63;6115870;23;20603;-80
2022/03/21 02:00:21;;;;;;;19.27;13.67;;;;;;;3.17;64.47;96831.91;6071377;23;20163;-80
2022/03/21 02:02:46;;;;;;;21.37;13.07;;;;;;;3.08;64.99;96841.72;6071375;23;20588;-80
2022/03/21 02:05:11;;;;;;;19.50;14.43;;;;;;;3.05;65.61;96835.91;6071105;23;20234;-81
2022/03/21 02:07:37;;;;;;;18.33;13.77;;;;;;;2.98;65.48;96837.91;6094932;23;20260;-81
2022/03/21 02:10:06;;;;;;;18.23;12.83;;;;;;;3.05;65.47;96841.84;6119408;23;20156;-80
2022/03/21 02:12:31;;;;;;;18.43;13.33;;;;;;;2.98;65.93;96840.47;6068730;23;20207;-80
2022/03/21 02:14:57;;;;;;;19.83;13.03;;;;;;;2.92;65.73;96840.75;6094836;23;20185;-80
2022/03/21 02:17:24;;;;;;;18.43;12.83;;;;;;;2.91;66.16;96828.81;6094613;23;20579;-80
2022/03/21 02:19:50;;;;;;;18.80;12.80;;;;;;;3.00;66.31;96830.13;6094911;23;20177;-79
2022/03/21 02:22:33;;;;;;;16.83;12.37;;;;;;;2.95;65.69;96830.34;6069856;23;20156;-80
2022/03/21 02:25:09;;;;;;;17.40;12.77;;;;;;;2.88;65.86;96816.13;6094941;23;20190;-80
2022/03/21 02:27:34;;;;;;;18.73;13.00;;;;;;;2.94;66.11;96820.16;6095985;23;20183;-80
2022/03/21 02:30:00;;;;;;;17.43;13.07;;;;;;;3.18;64.63;96821.59;6094313;23;20169;-79
2022/03/21 02:32:27;;;;;;;17.70;12.13;;;;;;;3.34;63.69;96816.56;6070341;23;20490;-80
2022/03/21 02:34:53;;;;;;;20.43;13.63;;;;;;;3.55;62.59;96814.72;6094331;23;20172;-80
2022/03/21 02:37:19;;;;;;;20.17;12.80;;;;;;;3.80;60.95;96811.78;6094017;23;20165;-80
2022/03/21 02:39:45;;;;;;;16.23;12.03;;;;;;;3.90;60.65;96815.56;6094276;23;20154;-80
2022/03/21 02:42:11;;;;;;;17.13;11.67;;;;;;;3.94;60.59;96809.38;6118278;23;20157;-81
2022/03/21 02:44:38;;;;;;;20.30;12.93;;;;;;;4.05;60.30;96804.50;6094869;23;20266;-79
2022/03/21 02:47:08;;;;;;;18.60;13.07;;;;;;;4.00;60.22;96798.78;6094349;23;20149;-79
2022/03/21 02:49:34;;;;;;;19.73;12.40;;;;;;;4.04;59.81;96813.13;6118729;23;20160;-80
2022/03/21 02:52:00;;;;;;;17.67;13.03;;;;;;;4.06;59.81;96813.06;6069817;23;20256;-79
2022/03/21 02:54:26;;;;;;;18.33;12.20;;;;;;;4.08;59.97;96806.94;6070341;23;20641;-80
2022/03/21 02:56:52;;;;;;;16.00;12.33;;;;;;;3.93;60.21;96812.84;6070768;23;20550;-79
2022/03/21 02:59:18;;;;;;;18.07;12.43;;;;;;;3.86;60.96;96817.44;6094105;23;20153;-79
2022/03/21 03:01:43;;;;;;;17.83;11.73;;;;;;;3.84;61.56;96824.41;6069710;23;20160;-80
2022/03/21 03:04:08;;;;;;;19.47;13.37;;;;;;;3.74;62.19;96830.91;6070175;23;20187;-79
2022/03/21 03:06:34;;;;;;;18.57;12.80;;;;;;;3.61;63.52;96825.50;6094646;23;20172;-79
2022/03/21 03:08:59;;;;;;;18.63;12.93;;;;;;;3.55;64.01;96828.41;6094570;23;20178;-79
2022/03/21 03:11:25;;;;;;;19.27;13.57;;;;;;;3.20;64.81;96830.06;6093621;23;20160;-79
2022/03/21 03:13:50;;;;;;;19.53;12.87;;;;;;;3.09;65.48;96827.13;6092977;23;20155;-79
2022/03/21 03:16:15;;;;;;;19.13;13.23;;;;;;;3.07;65.22;96823.81;6094565;23;20163;-79
2022/03/21 03:18:44;;;;;;;19.73;13.40;;;;;;;2.97;65.79;96825.97;6118941;23;20640;-79
2022/03/21 03:21:10;;;;;;;18.40;12.07;;;;;;;2.93;65.47;96826.19;6070280;23;20167;-80
2022/03/21 03:23:38;;;;;;;18.07;13.13;;;;;;;3.19;65.05;96823.28;6069953;23;20168;-80
2022/03/21 03:26:04;;;;;;;17.40;12.03;;;;;;;3.08;65.29;96828.88;6070457;23;20167;-80
2022/03/21 03:28:31;;;;;;;16.53;12.60;;;;;;;2.92;66.14;96838.19;6094092;23;20187;-80
2022/03/21 03:30:57;;;;;;;19.77;12.70;;;;;;;2.86;66.84;96837.63;6094072;23;20233;-80
2022/03/21 03:33:23;;;;;;;19.20;13.67;;;;;;;3.09;65.69;96838.25;6069399;23;20184;-80
2022/03/21 03:35:48;;;;;;;18.63;12.93;;;;;;;2.95;66.05;96837.22;6096228;23;20269;-79
2022/03/21 03:38:17;;;;;;;21.93;12.90;;;;;;;2.82;66.77;96842.06;6094296;23;20657;-79
2022/03/21 03:40:43;;;;;;;19.47;13.33;;;;;;;2.82;67.05;96842.06;6093860;23;20160;-79
2022/03/21 03:43:12;;;;;;;18.13;13.07;;;;;;;2.85;67.83;96841.94;6069756;23;20164;-79
2022/03/21 03:45:38;;;;;;;19.13;12.60;;;;;;;2.75;67.97;96840.69;6070169;23;20192;-79
2022/03/21 03:48:04;;;;;;;23.17;13.73;;;;;;;2.61;69.35;96848.16;6118355;23;20184;-80
2022/03/21 03:50:29;;;;;;;18.23;13.33;;;;;;;2.60;69.11;96844.75;6095747;23;20212;-79
2022/03/21 03:52:54;;;;;;;19.30;13.47;;;;;;;2.52;69.48;96847.66;6069833;23;20248;-80
2022/03/21 03:55:20;;;;;;;19.80;13.67;;;;;;;2.63;69.69;96852.31;6094127;23;20236;-79
2022/03/21 03:57:46;;;;;;;18.00;12.83;;;;;;;2.71;68.57;96857.09;6069905;23;20157;-80
2022/03/21 04:00:13;;;;;;;19.03;13.53;;;;;;;2.64;68.50;96851.41;6101585;23;20156;-80
2022/03/21 04:05:23;;;;;;;21.33;13.53;;;;;;;2.52;69.37;96854.50;6119477;23;20187;-81
2022/03/21 04:07:49;;;;;;;19.07;13.17;;;;;;;2.51;69.36;96853.69;6128551;23;20651;-81
2022/03/21 04:10:15;;;;;;;18.63;13.00;;;;;;;2.49;69.42;96852.09;6097134;23;20188;-81
2022/03/21 04:12:40;;;;;;;20.00;13.73;;;;;;;2.48;69.97;96861.50;6117699;23;20208;-81
2022/03/21 04:15:07;;;;;;;17.77;13.47;;;;;;;2.46;69.96;96859.91;6071244;23;20240;-81
2022/03/21 04:17:34;;;;;;;17.80;12.53;;;;;;;2.42;70.53;96851.50;6119971;23;20150;-81
2022/03/21 04:19:59;;;;;;;19.47;13.03;;;;;;;2.45;70.58;96853.94;6071447;23;20221;-80
2022/03/21 04:22:25;;;;;;;19.80;13.63;;;;;;;2.37;70.12;96850.03;6070275;23;20167;-80
2022/03/21 04:24:50;;;;;;;21.60;13.77;;;;;;;2.30;70.55;96849.50;6071351;23;20243;-80
2022/03/21 04:27:15;;;;;;;22.87;15.00;;;;;;;2.26;70.51;96845.38;6097061;23;20280;-80
2022/03/21 04:29:41;;;;;;;22.70;14.73;;;;;;;2.26;70.71;96850.50;6097702;23;20601;-81
2022/03/21 04:32:06;;;;;;;21.73;14.00;;;;;;;2.28;71.06;96851.25;6121721;23;20154;-81
2022/03/21 04:34:31;;;;;;;20.73;13.63;;;;;;;2.33;70.45;96861.34;6097747;23;20191;-80
2022/03/21 04:36:57;;;;;;;20.00;13.37;;;;;;;2.50;69.68;96857.16;6073504;23;20208;-81
2022/03/21 04:39:22;;;;;;;20.10;13.73;;;;;;;2.53;69.37;96859.56;6096936;23;20149;-81
2022/03/21 04:41:47;;;;;;;21.40;14.37;;;;;;;2.48;69.49;96861.50;6096494;23;20196;-80
2022/03/21 04:44:12;;;;;;;22.10;13.80;;;;;;;2.39;70.01;96872.16;6072984;23;20658;-80
2022/03/21 04:46:38;;;;;;;20.97;14.17;;;;;;;2.34;71.00;96879.22;6072729;23;20161;-80
2022/03/21 04:49:03;;;;;;;20.37;13.93;;;;;;;2.28;70.67;96866.63;6096657;23;20200;-80
2022/03/21 04:51:28;;;;;;;19.93;14.17;;;;;;;2.22;71.93;96867.75;6071731;23;20499;-80
2022/03/21 04:53:54;;;;;;;19.03;13.00;;;;;;;2.22;71.69;96870.31;6095873;23;20187;-80
2022/03/21 04:56:19;;;;;;;18.33;12.97;;;;;;;2.20;71.96;96876.38;6096769;23;20164;-79
2022/03/21 04:58:44;;;;;;;20.30;12.43;;;;;;;2.19;72.19;96869.59;6072368;23;20621;-79
2022/03/21 05:01:10;;;;;;;19.43;13.00;;;;;;;2.28;72.30;96872.59;6120522;23;20157;-80
2022/03/21 05:03:35;;;;;;;19.43;13.30;;;;;;;2.24;72.65;96883.06;6118615;23;20529;-80
2022/03/21 05:06:00;;;;;;;21.73;13.27;;;;;;;2.25;72.80;96883.00;6072465;23;20539;-80
2022/03/21 05:08:26;;;;;;;19.07;12.77;;;;;;;2.22;72.94;96885.69;6096237;23;20184;-79
2022/03/21 05:10:51;;;;;;;18.00;12.90;;;;;;;2.18;72.92;96886.69;6071797;23;20191;-80
2022/03/21 05:13:16;;;;;;;20.33;13.30;;;;;;;2.25;72.49;96887.28;6097211;23;20658;-80
2022/03/21 05:15:43;;;;;;;17.13;12.47;;;;;;;2.23;72.38;96886.53;6120578;23;20201;-80
2022/03/21 05:18:08;;;;;;;21.97;12.70;;;;;;;2.26;72.34;96900.03;6072141;23;20246;-79
2022/03/21 05:20:33;;;;;;;22.60;13.07;;;;;;;2.26;72.15;96900.03;6096091;23;20545;-80
2022/03/21 05:31:11;;;;;;;19.57;12.70;;;;;;;2.33;72.18;96899.78;6095322;23;20275;-80
2022/03/21 05:36:24;;;;;;;17.83;12.17;;;;;;;2.61;69.88;96894.31;6112229;23;20171;-80
2022/03/21 05:38:50;;;;;;;17.10;12.50;;;;;;;2.75;69.01;96892.81;6071108;23;20153;-80
2022/03/21 05:41:16;;;;;;;18.60;12.83;;;;;;;2.91;67.86;96892.97;6098465;23;20209;-79
2022/03/21 05:43:41;;;;;;;16.60;11.87;;;;;;;2.99;67.66;96897.75;6095663;23;20157;-80
2022/03/21 05:46:06;;;;;;;17.43;12.63;;;;;;;3.23;66.49;96901.78;6074069;23;20543;-79
2022/03/21 05:48:51;;;;;;;17.23;12.03;;;;;;;3.29;66.36;96896.38;6074205;23;20185;-81
2022/03/21 05:51:18;;;;;;;15.87;10.70;;;;;;;3.41;65.89;96900.94;6120714;23;20561;-79
2022/03/21 05:53:45;;;;;;;22.20;11.97;;;;;;;3.45;66.20;96904.22;6075262;23;20166;-82
2022/03/21 05:56:11;;;;;;;18.17;11.83;;;;;;;3.50;66.27;96906.56;6097799;23;20164;-79
2022/03/21 05:58:36;;;;;;;17.77;11.60;;;;;;;3.49;67.23;96905.72;6125609;23;20614;-82
2022/03/21 06:01:01;;;;;;;18.30;11.00;;;;;;;3.55;66.96;96908.03;6104046;23;20156;-81
2022/03/21 06:03:26;;;;;;;18.13;13.10;;;;;;;3.62;66.76;96911.13;6123258;23;20149;-82
2022/03/21 06:05:55;;;;;;;16.93;11.83;;;;;;;3.65;66.83;96906.69;6102566;23;20638;-82
2022/03/21 06:08:20;;;;;;;15.40;10.90;;;;;;;3.64;67.32;96912.72;6102775;23;20521;-82
2022/03/21 06:10:46;;;;;;;16.93;12.27;;;;;;;3.76;67.01;96913.88;6079212;23;20157;-82
2022/03/21 06:13:11;;;;;;;16.40;11.10;;;;;;;3.90;66.18;96915.81;6102205;23;20609;-82
2022/03/21 06:15:37;;;;;;;19.33;12.80;;;;;;;3.97;66.65;96924.84;6127603;23;20176;-82
2022/03/21 06:18:11;;;;;;;15.80;11.53;;;;;;;4.01;66.41;96918.69;6102540;23;20152;-81
2022/03/21 06:20:39;;;;;;;18.40;11.57;;;;;;;4.07;66.58;96920.13;6101209;23;20137;-82
2022/03/21 06:23:05;;;;;;;16.93;11.90;;;;;;;4.18;66.35;96925.59;6079387;23;20163;-81
2022/03/21 06:25:30;;;;;;;14.63;10.33;;;;;;;4.33;65.56;96929.97;6077753;23;20209;-82
2022/03/21 06:27:56;;;;;;;18.40;11.83;;;;;;;4.45;64.79;96933.66;6103643;23;20200;-83
2022/03/21 06:30:21;;;;;;;19.60;11.90;;;;;;;4.66;62.67;96940.31;6101833;23;20211;-79
2022/03/21 06:32:46;;;;;;;16.20;11.97;;;;;;;4.80;62.11;96932.72;6098543;23;20153;-82
2022/03/21 06:35:12;;;;;;;20.87;13.30;;;;;;;4.94;61.28;96946.63;6076222;23;20182;-77
2022/03/21 06:37:38;;;;;;;18.63;12.43;;;;;;;5.15;60.44;96948.09;6102205;23;20246;-81
2022/03/21 06:40:04;;;;;;;21.90;12.87;;;;;;;5.27;60.38;96962.91;6101794;23;20166;-80
2022/03/21 06:42:30;;;;;;;19.47;13.87;;;;;;;5.42;59.34;96958.69;6100613;23;20161;-79
2022/03/21 06:44:55;;;;;;;18.67;12.77;;;;;;;5.51;58.86;96967.66;6102493;23;20643;-82
2022/03/21 06:47:20;;;;;;;18.27;12.63;;;;;;;5.61;58.46;96961.94;6101593;23;20160;-81
2022/03/21 06:49:46;;;;;;;20.27;13.10;;;;;;;5.76;57.73;96962.03;6074774;23;20199;-80
2022/03/21 06:52:12;;;;;;;19.73;12.57;;;;;;;5.86;57.12;96958.84;6070533;23;20156;-77
2022/03/21 06:54:38;;;;;;;16.80;12.53;;;;;;;5.94;56.94;96972.19;6095428;23;20334;-79
2022/03/21 06:57:04;;;;;;;18.00;13.23;;;;;;;6.09;56.13;96972.25;6097848;23;20661;-78
2022/03/21 06:59:31;;;;;;;19.70;13.00;;;;;;;6.05;56.66;96968.19;6122338;23;20184;-78
2022/03/21 07:01:56;;;;;;;23.50;14.50;;;;;;;6.11;56.57;96975.59;6128109;23;20159;-80
2022/03/21 07:04:23;;;;;;;17.97;12.80;;;;;;;6.16;56.64;96971.00;6102895;23;20191;-81
2022/03/21 07:06:49;;;;;;;19.03;13.80;;;;;;;6.30;56.04;96978.78;6079165;23;20160;-79
2022/03/21 07:09:14;;;;;;;18.37;13.27;;;;;;;6.47;55.46;96977.84;6126189;23;20239;-77
2022/03/21 07:11:39;;;;;;;17.80;12.77;;;;;;;6.61;56.04;96974.47;6077263;23;20168;-80
2022/03/21 07:14:05;;;;;;;17.97;12.67;;;;;;;6.74;55.02;96978.00;6076534;23;20655;-79
2022/03/21 07:16:30;;;;;;;19.47;13.60;;;;;;;6.88;54.70;96980.59;6097359;23;20161;-80
2022/03/21 07:18:55;;;;;;;19.27;13.47;;;;;;;6.97;54.72;96981.81;6121354;23;20160;-79
2022/03/21 07:21:21;;;;;;;19.67;12.87;;;;;;;7.01;54.66;96981.56;6098043;23;20164;-79
2022/03/21 07:23:46;;;;;;;20.03;13.47;;;;;;;7.13;54.59;96985.16;6097474;23;20195;-80
2022/03/21 07:26:12;;;;;;;17.13;12.73;;;;;;;7.25;54.77;96983.59;6098164;23;20156;-78
2022/03/21 07:28:38;;;;;;;19.37;13.03;;;;;;;7.31;54.52;96980.63;6098459;23;20180;-80
2022/03/21 07:31:04;;;;;;;19.87;13.30;;;;;;;7.33;54.73;96984.81;6104082;23;20207;-80
2022/03/21 07:33:32;;;;;;;14.80;11.83;;;;;;;7.48;54.69;96984.78;6084719;23;20154;-82
2022/03/21 07:35:57;;;;;;;19.60;12.60;;;;;;;7.62;54.60;96982.19;6107247;23;20267;-80
2022/03/21 07:38:22;;;;;;;15.93;12.90;;;;;;;7.71;53.99;96984.22;6134952;23;20153;-79
2022/03/21 07:40:49;;;;;;;17.13;12.80;;;;;;;7.77;54.04;96980.41;6133673;23;20256;-77
2022/03/21 07:43:14;;;;;;;18.33;12.90;;;;;;;7.93;53.28;96976.75;6132883;23;20486;-79
2022/03/21 07:48:27;;;;;;;16.30;11.87;;;;;;;8.12;52.75;96991.13;6135383;23;20211;-79
2022/03/21 07:50:54;;;;;;;15.60;12.03;;;;;;;8.28;52.60;96993.56;6135353;23;20159;-79
2022/03/21 07:53:19;;;;;;;16.83;12.03;;;;;;;8.40;52.44;96991.06;6086001;23;20191;-78
2022/03/21 07:55:44;;;;;;;15.43;11.50;;;;;;;8.49;52.17;96984.47;6085814;23;20188;-78
2022/03/21 07:58:10;;;;;;;17.07;12.33;;;;;;;8.59;52.04;96985.53;6086615;23;20502;-79
2022/03/21 08:00:35;;;;;;;14.60;11.27;;;;;;;8.74;51.75;96997.44;6110303;23;20157;-79
2022/03/21 08:03:00;;;;;;;17.33;11.33;;;;;;;8.85;51.24;96991.56;6135612;23;20159;-78
2022/03/21 08:05:28;;;;;;;12.13;10.43;;;;;;;8.99;51.13;96996.66;6138176;23;20179;-79
2022/03/21 08:07:53;;;;;;;17.83;10.93;;;;;;;9.08;50.67;96987.44;6135653;23;20234;-78
2022/03/21 08:10:19;;;;;;;14.90;10.43;;;;;;;9.17;50.77;96992.00;6110071;23;20144;-78
2022/03/21 08:12:46;;;;;;;17.17;11.40;;;;;;;9.41;49.88;96999.88;6109378;23;20160;-79
2022/03/21 08:15:12;;;;;;;15.67;10.97;;;;;;;9.42;50.41;97001.53;6088726;23;20176;-79
2022/03/21 08:18:00;;;;;;;14.40;10.53;;;;;;;9.55;50.61;97007.53;6087917;23;20335;-79
2022/03/21 08:20:33;;;;;;;13.17;10.27;;;;;;;9.73;49.56;97009.81;6111035;23;20152;-79
2022/03/21 08:22:58;;;;;;;18.13;11.07;;;;;;;9.87;49.43;97009.66;6111621;23;20145;-76
2022/03/21 08:25:25;;;;;;;13.40;9.03;;;;;;;9.84;49.76;97004.69;6112066;23;20609;-78
2022/03/21 08:27:50;;;;;;;15.00;10.87;;;;;;;9.92;49.11;97013.59;6110882;23;20628;-80
2022/03/21 08:30:16;;;;;;;14.00;7.97;;;;;;;10.06;49.48;97010.00;6112207;23;20159;-78
2022/03/21 08:32:45;;;;;;;10.37;8.10;;;;;;;10.13;49.32;97011.25;6108269;23;20152;-80
2022/03/21 08:35:11;;;;;;;15.07;10.00;;;;;;;10.26;49.01;97015.59;6086778;23;20180;-77
2022/03/21 08:37:36;;;;;;;15.93;9.93;;;;;;;10.33;48.99;97019.41;6084776;23;20625;-80
2022/03/21 08:40:02;;;;;;;16.03;10.20;;;;;;;10.32;48.03;97026.34;6108017;23;20159;-79
2022/03/21 08:42:29;;;;;;;12.87;8.20;;;;;;;10.14;48.54;97022.44;6082500;23;20160;-80
2022/03/21 08:44:54;;;;;;;16.30;9.90;;;;;;;10.39;48.79;97024.16;6108646;23;20194;-78
2022/03/21 08:47:20;;;;;;;15.67;10.50;;;;;;;10.47;48.90;97022.66;6134174;23;20164;-78
2022/03/21 08:49:45;;;;;;;12.73;9.00;;;;;;;10.59;48.13;97023.53;6109538;23;20156;-79
2022/03/21 08:52:10;;;;;;;18.40;10.43;;;;;;;10.54;48.48;97027.44;6108266;23;20654;-79
2022/03/21 08:54:36;;;;;;;11.50;8.77;;;;;;;10.60;48.03;97029.56;6084565;23;20192;-79
2022/03/21 08:57:04;;;;;;;10.37;8.13;;;;;;;10.45;48.90;97024.56;6134350;23;20140;-79
2022/03/21 08:59:30;;;;;;;13.43;9.20;;;;;;;10.47;48.22;97022.66;6086196;23;20163;-79
2022/03/21 09:01:55;;;;;;;11.33;8.93;;;;;;;10.64;48.27;97023.22;6107478;23;20152;-80
2022/03/21 09:04:20;;;;;;;13.07;9.57;;;;;;;10.74;47.24;97024.19;6105361;23;20180;-78
2022/03/21 09:06:46;;;;;;;13.53;10.03;;;;;;;10.76;48.20;97020.53;6134173;23;20163;-78
2022/03/21 09:09:11;;;;;;;11.80;8.93;;;;;;;10.92;47.28;97022.84;6082663;23;20255;-78
2022/03/21 09:11:37;;;;;;;10.23;8.63;;;;;;;10.92;47.61;97017.63;6104979;23;20629;-78
2022/03/21 09:14:03;;;;;;;11.83;9.10;;;;;;;11.03;47.04;97014.22;6103026;23;20176;-77
2022/03/21 09:16:29;;;;;;;12.90;10.00;;;;;;;10.96;47.49;97013.88;6103447;23;20164;-77
2022/03/21 09:18:54;;;;;;;11.40;9.00;;;;;;;11.02;47.51;97016.00;6103526;23;20152;-77
2022/03/21 09:21:19;;;;;;;12.70;9.47;;;;;;;11.20;47.69;97010.38;6128105;23;20179;-78
2022/03/21 09:23:45;;;;;;;11.43;8.97;;;;;;;11.24;46.85;97017.00;6102365;23;20183;-78
2022/03/21 09:26:11;;;;;;;10.83;8.63;;;;;;;11.17;47.24;97013.22;6103222;23;20152;-78
2022/03/21 09:28:39;;;;;;;12.87;9.17;;;;;;;11.18;47.45;97017.47;6102623;23;20554;-78
2022/03/21 09:31:06;;;;;;;13.43;8.57;;;;;;;11.17;47.58;97015.81;6101050;23;20198;-77
2022/03/21 09:33:32;;;;;;;12.23;9.10;;;;;;;11.11;47.45;97013.66;6080059;23;20594;-77
2022/03/21 09:35:57;;;;;;;13.23;9.33;;;;;;;11.22;48.12;97017.13;6105130;23;20182;-77
2022/03/21 09:38:22;;;;;;;13.27;10.27;;;;;;;11.43;47.51;97011.25;6104622;23;20176;-78
2022/03/21 09:40:48;;;;;;;12.00;10.70;;;;;;;11.37;47.21;97015.13;6103917;23;20156;-78
2022/03/21 09:43:13;;;;;;;14.37;9.73;;;;;;;11.38;47.30;97008.97;6103227;23;20152;-77
2022/03/21 09:45:39;;;;;;;13.43;9.33;;;;;;;11.39;47.80;97009.81;6099597;23;20266;-77
2022/03/21 09:48:08;;;;;;;18.17;10.40;;;;;;;11.56;47.59;97010.16;6101738;23;20178;-78
2022/03/21 09:50:35;;;;;;;12.50;9.73;;;;;;;11.54;47.18;97006.88;6077476;23;20637;-77
2022/03/21 09:53:01;;;;;;;15.37;9.43;;;;;;;11.81;47.42;97011.75;6104915;23;20227;-79
2022/03/21 09:55:26;;;;;;;14.17;8.90;;;;;;;11.75;46.51;97008.75;6104432;23;20469;-78
2022/03/21 09:57:51;;;;;;;12.03;9.53;;;;;;;11.49;46.95;97006.41;6102945;23;20178;-78
2022/03/21 10:00:17;;;;;;;14.23;9.67;;;;;;;11.76;46.84;97008.66;6102892;23;20179;-77
2022/03/21 10:02:43;;;;;;;13.13;8.50;;;;;;;11.85;46.03;97013.16;6082144;23;20160;-79
2022/03/21 10:05:35;;;;;;;12.33;9.23;;;;;;;11.84;46.20;97010.69;6105841;23;20180;-80
2022/03/21 10:08:13;;;;;;;13.13;8.67;;;;;;;11.78;46.34;97003.31;6107456;23;20231;-79
2022/03/21 10:10:41;;;;;;;11.23;8.40;;;;;;;11.98;46.68;97005.22;6108809;23;20606;-79
2022/03/21 10:13:09;;;;;;;11.20;9.00;;;;;;;11.95;47.39;97002.03;6083343;23;20485;-79
2022/03/21 10:15:36;;;;;;;13.57;7.93;;;;;;;12.17;45.98;97005.41;6082632;23;20206;-79
2022/03/21 10:18:08;;;;;;;12.60;8.47;;;;;;;12.11;45.39;96998.09;6132725;23;20144;-79
2022/03/21 10:20:35;;;;;;;10.90;8.70;;;;;;;12.12;44.93;96997.16;6108013;23;20546;-79
2022/03/21 10:23:21;;;;;;;11.40;8.90;;;;;;;12.21;45.05;96999.97;6106245;23;20156;-78
2022/03/21 10:25:47;;;;;;;12.23;8.33;;;;;;;12.21;45.19;97002.59;6106299;23;20497;-79
2022/03/21 10:28:35;;;;;;;11.77;7.83;;;;;;;12.42;44.93;96995.63;6081853;23;20230;-80
2022/03/21 10:31:01;;;;;;;10.13;8.30;;;;;;;12.50;45.39;96997.63;6106562;23;20140;-79
2022/03/21 10:33:27;;;;;;;12.37;8.40;;;;;;;12.29;45.31;97001.03;6083386;23;20162;-78
2022/03/21 10:35:52;;;;;;;11.83;8.73;;;;;;;12.29;45.30;96994.97;6108121;23;20180;-79
2022/03/21 10:38:32;;;;;;;13.13;9.27;;;;;;;12.49;44.79;96999.41;6082630;23;20218;-79
2022/03/21 10:40:57;;;;;;;11.23;7.90;;;;;;;12.57;44.73;96993.59;6106171;23;20151;-80
2022/03/21 10:43:23;;;;;;;12.23;8.97;;;;;;;12.60;45.07;96998.53;6106275;23;20183;-78
2022/03/21 10:45:53;;;;;;;14.40;9.23;;;;;;;12.70;44.22;96987.22;6105181;23;20252;-79
2022/03/21 10:48:21;;;;;;;16.17;9.47;;;;;;;12.70;43.83;96995.03;6104713;23;20188;-79
2022/03/21 10:50:49;;;;;;;10.60;8.63;;;;;;;12.79;43.80;96993.47;6103214;23;20207;-78
2022/03/21 10:53:39;;;;;;;12.30;7.90;;;;;;;12.57;43.54;97001.41;6103318;23;20163;-79
2022/03/21 10:56:08;;;;;;;10.93;8.37;;;;;;;12.58;44.71;96995.22;6080908;23;20172;-79
2022/03/21 10:58:33;;;;;;;12.87;8.63;;;;;;;12.53;44.44;96992.16;6114689;23;20140;-79
2022/03/21 11:01:25;;;;;;;14.13;8.10;;;;;;;12.68;44.94;96983.94;6121678;23;20183;-80
2022/03/21 11:03:56;;;;;;;14.07;8.53;;;;;;;12.84;44.10;96985.28;6100633;23;20171;-79
2022/03/21 11:06:22;;;;;;;10.37;7.83;;;;;;;12.86;44.20;96978.16;6146531;23;20132;-79
2022/03/21 11:08:50;;;;;;;11.87;8.30;;;;;;;13.00;43.34;96985.66;6086878;23;20195;-80
2022/03/21 11:11:15;;;;;;;11.20;7.83;;;;;;;13.06;43.33;96979.94;6135300;23;20155;-80
2022/03/21 11:13:41;;;;;;;9.57;7.47;;;;;;;13.26;43.46;96979.13;6109341;23;20502;-78
2022/03/21 11:16:06;;;;;;;9.87;7.30;;;;;;;13.29;43.45;96975.44;6107838;23;20172;-80
2022/03/21 11:18:31;;;;;;;12.03;7.53;;;;;;;13.23;43.05;96981.97;6107966;23;20148;-80
2022/03/21 11:20:57;;;;;;;14.67;8.77;;;;;;;13.23;42.72;96981.97;6106714;23;20152;-80
2022/03/21 11:23:25;;;;;;;11.23;9.00;;;;;;;13.24;42.29;96978.41;6082906;23;20162;-78
2022/03/21 11:26:14;;;;;;;11.83;8.50;;;;;;;13.32;43.75;96975.16;6083348;23;20191;-79
2022/03/21 11:29:01;;;;;;;12.70;9.17;;;;;;;13.05;42.92;96971.28;6103989;23;20172;-78
2022/03/21 11:31:44;;;;;;;15.70;9.93;;;;;;;13.16;42.98;96970.38;6129526;23;20179;-79
2022/03/21 11:34:19;;;;;;;12.10;9.77;;;;;;;12.88;44.46;96971.03;6105030;23;20176;-80
2022/03/21 11:36:56;;;;;;;11.87;9.10;;;;;;;13.03;43.80;96975.81;6082004;23;20254;-80
2022/03/21 11:39:21;;;;;;;11.43;9.43;;;;;;;13.26;43.81;96973.09;6131063;23;20151;-78
2022/03/21 11:42:00;;;;;;;14.33;9.27;;;;;;;13.38;43.11;96979.03;6104235;23;20156;-77